sensor_id;sensor_type;location;lat;lon;timestamp;pressure;altitude;pressure_sealevel;temperature;humidity
75438;BME280;64015;49.392;15.582;2024-01-27T00:00:33;96633.97;;;2.31;100.00
75438;BME280;64015;49.392;15.582;2024-01-27T00:03:19;96659.63;;;2.40;100.00
75438;BME280;64015;49.392;15.582;2024-01-27T00:06:13;96655.03;;;2.42;100.00
75438;BME280;64015;49.392;15.582;2024-01-27T00:09:00;96657.63;;;2.42;100.00
75438;BME280;64015;49.392;15.582;2024-01-27T00:11:37;96651.03;;;2.40;100.00
75438;BME280;64015;49.392;15.582;2024-01-27T00:14:03;96667.22;;;2.42;100.00
75438;BME280;64015;49.392;15.582;2024-01-27T00:16:39;96656.63;;;2.43;100.00
75438;BME280;64015;49.392;15.582;2024-01-27T00:22:57;96668.63;;;2.38;100.00
75438;BME280;64015;49.392;15.582;2024-01-27T00:26:06;96647.19;;;2.36;100.00
75438;BME280;64015;49.392;15.582;2024-01-27T00:29:06;96667.81;;;2.31;100.00
75438;BME280;64015;49.392;15.582;2024-01-27T00:32:11;96666.19;;;2.30;100.00
75438;BME280;64015;49.392;15.582;2024-01-27T00:34:40;96662.88;;;2.08;100.00
75438;BME280;64015;49.392;15.582;2024-01-27T00:41:05;96657.88;;;1.78;100.00
75438;BME280;64015;49.392;15.582;2024-01-27T00:43:33;96660.06;;;1.75;100.00
75438;BME280;64015;49.392;15.582;2024-01-27T00:49:02;96665.03;;;1.70;100.00
75438;BME280;64015;49.392;15.582;2024-01-27T00:57:55;96671.72;;;1.58;100.00
75438;BME280;64015;49.392;15.582;2024-01-27T01:00:21;96661.22;;;1.44;100.00
75438;BME280;64015;49.392;15.582;2024-01-27T01:07:19;96690.06;;;1.49;100.00
75438;BME280;64015;49.392;15.582;2024-01-27T01:21:57;96707.38;;;1.21;100.00
75438;BME280;64015;49.392;15.582;2024-01-27T01:24:25;96708.88;;;1.09;100.00
75438;BME280;64015;49.392;15.582;2024-01-27T01:31:32;96712.97;;;1.18;100.00
75438;BME280;64015;49.392;15.582;2024-01-27T01:34:19;96714.94;;;1.16;100.00
75438;BME280;64015;49.392;15.582;2024-01-27T01:37:25;96714.72;;;1.11;100.00
75438;BME280;64015;49.392;15.582;2024-01-27T01:43:59;96729.78;;;1.22;100.00
75438;BME280;64015;49.392;15.582;2024-01-27T01:51:07;96780.44;;;1.11;100.00
75438;BME280;64015;49.392;15.582;2024-01-27T02:02:29;96744.06;;;1.11;100.00
75438;BME280;64015;49.392;15.582;2024-01-27T02:05:20;96745.03;;;1.25;100.00
75438;BME280;64015;49.392;15.582;2024-01-27T02:11:24;96766.31;;;1.35;100.00
75438;BME280;64015;49.392;15.582;2024-01-27T02:13:51;96733.19;;;1.23;100.00
75438;BME280;64015;49.392;15.582;2024-01-27T02:20:08;96760.00;;;1.44;100.00
75438;BME280;64015;49.392;15.582;2024-01-27T02:25:27;96749.28;;;1.33;100.00
75438;BME280;64015;49.392;15.582;2024-01-27T02:31:14;96750.72;;;1.35;100.00
75438;BME280;64015;49.392;15.582;2024-01-27T02:33:55;96751.72;;;1.34;100.00
75438;BME280;64015;49.392;15.582;2024-01-27T02:36:21;96762.69;;;1.30;100.00
75438;BME280;64015;49.392;15.582;2024-01-27T02:38:49;96756.69;;;1.29;100.00
75438;BME280;64015;49.392;15.582;2024-01-27T02:41:18;96774.75;;;1.37;100.00
75438;BME280;64015;49.392;15.582;2024-01-27T02:43:44;96745.66;;;1.27;100.00
75438;BME280;64015;49.392;15.582;2024-01-27T02:49:05;96761.16;;;1.21;100.00
75438;BME280;64015;49.392;15.582;2024-01-27T02:51:31;96754.09;;;1.15;100.00
75438;BME280;64015;49.392;15.582;2024-01-27T02:54:08;96753.22;;;1.07;100.00
75438;BME280;64015;49.392;15.582;2024-01-27T02:56:34;96765.66;;;1.12;100.00
75438;BME280;64015;49.392;15.582;2024-01-27T02:59:28;96762.34;;;1.18;100.00
75438;BME280;64015;49.392;15.582;2024-01-27T03:02:17;96758.25;;;1.09;100.00
75438;BME280;64015;49.392;15.582;2024-01-27T03:04:51;96759.06;;;1.09;100.00
75438;BME280;64015;49.392;15.582;2024-01-27T03:07:20;96751.16;;;1.03;100.00
75438;BME280;64015;49.392;15.582;2024-01-27T03:19:59;96773.56;;;1.04;100.00
75438;BME280;64015;49.392;15.582;2024-01-27T03:22:34;96783.97;;;1.04;100.00
75438;BME280;64015;49.392;15.582;2024-01-27T03:25:30;96764.09;;;1.11;100.00
75438;BME280;64015;49.392;15.582;2024-01-27T03:28:28;96771.25;;;1.09;100.00
75438;BME280;64015;49.392;15.582;2024-01-27T03:31:29;96792.56;;;1.19;100.00
75438;BME280;64015;49.392;15.582;2024-01-27T03:44:59;96780.78;;;1.23;100.00
75438;BME280;64015;49.392;15.582;2024-01-27T04:02:21;96822.19;;;1.25;100.00
75438;BME280;64015;49.392;15.582;2024-01-27T04:04:47;96822.13;;;1.18;100.00
75438;BME280;64015;49.392;15.582;2024-01-27T04:07:13;96837.78;;;1.25;100.00
75438;BME280;64015;49.392;15.582;2024-01-27T04:10:01;96834.72;;;1.21;100.00
75438;BME280;64015;49.392;15.582;2024-01-27T04:12:27;96833.94;;;1.06;100.00
75438;BME280;64015;49.392;15.582;2024-01-27T04:14:59;96830.63;;;1.12;100.00
75438;BME280;64015;49.392;15.582;2024-01-27T04:17:27;96849.72;;;1.19;100.00
75438;BME280;64015;49.392;15.582;2024-01-27T04:19:57;96864.22;;;1.13;100.00
75438;BME280;64015;49.392;15.582;2024-01-27T04:22:23;96850.34;;;1.06;100.00
75438;BME280;64015;49.392;15.582;2024-01-27T04:24:52;96861.66;;;0.99;100.00
75438;BME280;64015;49.392;15.582;2024-01-27T04:43:57;96854.56;;;0.93;100.00
75438;BME280;64015;49.392;15.582;2024-01-27T04:46:46;96880.72;;;1.06;100.00
75438;BME280;64015;49.392;15.582;2024-01-27T04:49:20;96874.47;;;1.00;100.00
75438;BME280;64015;49.392;15.582;2024-01-27T04:52:07;96881.00;;;0.96;100.00
75438;BME280;64015;49.392;15.582;2024-01-27T04:54:42;96871.31;;;0.90;100.00
75438;BME280;64015;49.392;15.582;2024-01-27T05:00:52;96881.81;;;0.97;100.00
75438;BME280;64015;49.392;15.582;2024-01-27T05:03:46;96881.81;;;0.97;100.00
75438;BME280;64015;49.392;15.582;2024-01-27T05:06:16;96881.59;;;0.84;100.00
75438;BME280;64015;49.392;15.582;2024-01-27T05:08:46;96883.84;;;0.87;100.00
75438;BME280;64015;49.392;15.582;2024-01-27T05:11:30;96881.53;;;0.92;100.00
75438;BME280;64015;49.392;15.582;2024-01-27T05:13:57;96874.56;;;0.92;99.67
75438;BME280;64015;49.392;15.582;2024-01-27T05:16:26;96883.34;;;0.91;100.00
75438;BME280;64015;49.392;15.582;2024-01-27T05:19:03;96904.53;;;0.95;100.00
75438;BME280;64015;49.392;15.582;2024-01-27T05:21:28;96882.63;;;0.83;100.00
75438;BME280;64015;49.392;15.582;2024-01-27T05:23:54;96884.03;;;0.85;100.00
75438;BME280;64015;49.392;15.582;2024-01-27T05:26:49;96880.81;;;0.83;100.00
75438;BME280;64015;49.392;15.582;2024-01-27T05:29:15;96885.28;;;0.89;100.00
75438;BME280;64015;49.392;15.582;2024-01-27T05:31:41;96874.38;;;0.79;100.00
75438;BME280;64015;49.392;15.582;2024-01-27T05:34:29;96893.97;;;0.82;100.00
75438;BME280;64015;49.392;15.582;2024-01-27T05:36:56;96880.38;;;0.80;100.00
75438;BME280;64015;49.392;15.582;2024-01-27T05:39:27;96909.56;;;0.82;100.00
75438;BME280;64015;49.392;15.582;2024-01-27T05:41:55;96910.16;;;0.84;100.00
75438;BME280;64015;49.392;15.582;2024-01-27T05:44:21;96918.09;;;0.90;100.00
75438;BME280;64015;49.392;15.582;2024-01-27T05:46:47;96908.13;;;0.94;100.00
75438;BME280;64015;49.392;15.582;2024-01-27T05:49:12;96901.50;;;0.91;100.00
75438;BME280;64015;49.392;15.582;2024-01-27T05:51:41;96912.06;;;0.90;100.00
75438;BME280;64015;49.392;15.582;2024-01-27T05:54:07;96912.00;;;0.98;100.00
75438;BME280;64015;49.392;15.582;2024-01-27T05:56:34;96928.56;;;0.97;100.00
75438;BME280;64015;49.392;15.582;2024-01-27T05:59:10;96930.19;;;0.98;100.00
75438;BME280;64015;49.392;15.582;2024-01-27T06:01:51;96928.56;;;0.97;100.00
75438;BME280;64015;49.392;15.582;2024-01-27T06:04:16;96935.91;;;1.08;100.00
75438;BME280;64015;49.392;15.582;2024-01-27T06:06:57;96926.78;;;0.97;100.00
75438;BME280;64015;49.392;15.582;2024-01-27T06:09:23;96918.50;;;0.94;100.00
75438;BME280;64015;49.392;15.582;2024-01-27T06:12:06;96941.84;;;1.02;100.00
75438;BME280;64015;49.392;15.582;2024-01-27T06:14:41;96925.31;;;0.95;100.00
75438;BME280;64015;49.392;15.582;2024-01-27T06:17:07;96948.63;;;1.03;100.00
75438;BME280;64015;49.392;15.582;2024-01-27T06:19:33;96947.03;;;1.02;100.00
75438;BME280;64015;49.392;15.582;2024-01-27T06:21:59;96945.03;;;0.89;100.00
75438;BME280;64015;49.392;15.582;2024-01-27T06:24:25;96944.94;;;0.83;100.00
75438;BME280;64015;49.392;15.582;2024-01-27T06:27:10;96960.56;;;0.74;100.00
75438;BME280;64015;49.392;15.582;2024-01-27T06:29:35;96947.41;;;0.61;100.00
75438;BME280;64015;49.392;15.582;2024-01-27T06:32:01;96944.34;;;0.58;100.00
75438;BME280;64015;49.392;15.582;2024-01-27T06:34:39;96946.56;;;0.46;100.00
75438;BME280;64015;49.392;15.582;2024-01-27T06:37:05;96961.78;;;0.49;100.00
75438;BME280;64015;49.392;15.582;2024-01-27T06:39:31;96967.03;;;0.41;100.00
75438;BME280;64015;49.392;15.582;2024-01-27T06:41:57;96982.28;;;0.44;100.00
75438;BME280;64015;49.392;15.582;2024-01-27T06:44:38;96959.59;;;0.38;100.00
75438;BME280;64015;49.392;15.582;2024-01-27T06:47:04;96972.53;;;0.46;100.00
75438;BME280;64015;49.392;15.582;2024-01-27T06:49:29;96983.19;;;0.51;100.00
75438;BME280;64015;49.392;15.582;2024-01-27T06:51:55;96972.53;;;0.46;100.00
75438;BME280;64015;49.392;15.582;2024-01-27T06:54:21;96976.19;;;0.52;100.00
75438;BME280;64015;49.392;15.582;2024-01-27T06:56:52;96967.50;;;0.45;100.00
75438;BME280;64015;49.392;15.582;2024-01-27T06:59:30;96975.28;;;0.45;100.00
75438;BME280;64015;49.392;15.582;2024-01-27T07:02:08;96997.06;;;0.58;100.00
75438;BME280;64015;49.392;15.582;2024-01-27T07:04:44;96982.91;;;0.46;100.00
75438;BME280;64015;49.392;15.582;2024-01-27T07:10:57;97007.75;;;0.63;100.00
75438;BME280;64015;49.392;15.582;2024-01-27T07:13:23;96995.81;;;0.54;100.00
75438;BME280;64015;49.392;15.582;2024-01-27T07:15:49;96995.81;;;0.54;100.00
75438;BME280;64015;49.392;15.582;2024-01-27T07:18:25;97000.81;;;0.56;100.00
75438;BME280;64015;49.392;15.582;2024-01-27T07:21:01;97009.38;;;0.64;100.00
75438;BME280;64015;49.392;15.582;2024-01-27T07:23:34;96983.00;;;0.53;100.00
75438;BME280;64015;49.392;15.582;2024-01-27T07:26:00;97010.53;;;0.62;100.00
75438;BME280;64015;49.392;15.582;2024-01-27T07:31:54;97013.75;;;0.64;100.00
75438;BME280;64015;49.392;15.582;2024-01-27T07:34:20;97028.47;;;0.71;100.00
75438;BME280;64015;49.392;15.582;2024-01-27T07:36:45;97015.19;;;0.66;100.00
75438;BME280;64015;49.392;15.582;2024-01-27T07:39:25;97020.94;;;0.77;99.59
75438;BME280;64015;49.392;15.582;2024-01-27T07:41:50;97019.31;;;0.75;100.00
75438;BME280;64015;49.392;15.582;2024-01-27T07:44:18;97027.31;;;0.74;99.62
75438;BME280;64015;49.392;15.582;2024-01-27T07:47:29;97024.19;;;0.79;99.74
75438;BME280;64015;49.392;15.582;2024-01-27T07:50:35;97065.72;;;1.01;98.97
75438;BME280;64015;49.392;15.582;2024-01-27T07:53:21;97070.56;;;1.04;98.32
75438;BME280;64015;49.392;15.582;2024-01-27T07:56:09;97053.56;;;1.02;98.46
75438;BME280;64015;49.392;15.582;2024-01-27T07:58:47;97083.69;;;1.11;98.50
75438;BME280;64015;49.392;15.582;2024-01-27T08:01:21;97062.75;;;1.04;98.41
75438;BME280;64015;49.392;15.582;2024-01-27T08:03:48;97083.69;;;1.11;98.19
75438;BME280;64015;49.392;15.582;2024-01-27T08:06:49;97080.78;;;1.06;98.46
75438;BME280;64015;49.392;15.582;2024-01-27T08:09:32;97071.28;;;1.13;98.50
75438;BME280;64015;49.392;15.582;2024-01-27T08:12:00;97066.16;;;1.05;98.45
75438;BME280;64015;49.392;15.582;2024-01-27T08:14:47;97071.38;;;1.05;98.14
75438;BME280;64015;49.392;15.582;2024-01-27T08:17:24;97072.28;;;1.12;97.97
75438;BME280;64015;49.392;15.582;2024-01-27T08:20:03;97075.50;;;1.14;96.85
75438;BME280;64015;49.392;15.582;2024-01-27T08:22:42;97078.41;;;1.19;96.83
75438;BME280;64015;49.392;15.582;2024-01-27T08:25:09;97078.41;;;1.19;96.51
75438;BME280;64015;49.392;15.582;2024-01-27T08:28:12;97090.28;;;1.13;95.52
75438;BME280;64015;49.392;15.582;2024-01-27T08:31:14;97103.22;;;1.22;96.15
75438;BME280;64015;49.392;15.582;2024-01-27T08:33:46;97099.19;;;1.19;96.43
75438;BME280;64015;49.392;15.582;2024-01-27T08:36:27;97089.94;;;1.17;95.78
75438;BME280;64015;49.392;15.582;2024-01-27T08:42:32;97094.91;;;1.26;94.83
75438;BME280;64015;49.392;15.582;2024-01-27T08:49:03;97103.66;;;1.48;93.96
75438;BME280;64015;49.392;15.582;2024-01-27T08:55:23;97098.53;;;1.55;92.42
75438;BME280;64015;49.392;15.582;2024-01-27T08:58:09;97074.84;;;1.49;92.56
75438;BME280;64015;49.392;15.582;2024-01-27T09:04:19;97088.94;;;1.55;89.66
75438;BME280;64015;49.392;15.582;2024-01-27T09:07:31;97077.81;;;1.61;90.87
75438;BME280;64015;49.392;15.582;2024-01-27T09:10:12;97089.31;;;1.81;90.05
75438;BME280;64015;49.392;15.582;2024-01-27T09:12:48;97088.88;;;1.93;88.78
75438;BME280;64015;49.392;15.582;2024-01-27T09:15:24;97081.06;;;1.78;87.99
75438;BME280;64015;49.392;15.582;2024-01-27T09:18:26;97078.00;;;1.89;86.57
75438;BME280;64015;49.392;15.582;2024-01-27T09:21:15;97074.78;;;1.87;87.42
75438;BME280;64015;49.392;15.582;2024-01-27T09:23:46;97080.59;;;1.89;85.91
75438;BME280;64015;49.392;15.582;2024-01-27T09:30:41;97090.72;;;2.13;85.14
75438;BME280;64015;49.392;15.582;2024-01-27T09:33:13;97069.72;;;2.30;83.93
75438;BME280;64015;49.392;15.582;2024-01-27T09:35:39;97071.09;;;2.47;83.04
75438;BME280;64015;49.392;15.582;2024-01-27T09:42:08;97082.16;;;2.49;82.12
75438;BME280;64015;49.392;15.582;2024-01-27T09:56:00;97128.25;;;2.19;85.09
75438;BME280;64015;49.392;15.582;2024-01-27T09:58:32;97107.78;;;2.31;83.97
75438;BME280;64015;49.392;15.582;2024-01-27T10:04:43;97094.75;;;2.31;82.58
75438;BME280;64015;49.392;15.582;2024-01-27T10:07:14;97121.59;;;2.31;81.67
75438;BME280;64015;49.392;15.582;2024-01-27T10:09:49;97113.22;;;2.36;82.14
75438;BME280;64015;49.392;15.582;2024-01-27T10:12:16;97106.41;;;2.35;82.47
75438;BME280;64015;49.392;15.582;2024-01-27T10:14:43;97095.28;;;2.41;82.69
75438;BME280;64015;49.392;15.582;2024-01-27T10:20:12;97102.19;;;2.70;81.03
75438;BME280;64015;49.392;15.582;2024-01-27T10:26:42;97101.13;;;2.64;80.96
75438;BME280;64015;49.392;15.582;2024-01-27T10:32:39;97102.50;;;2.81;79.87
75438;BME280;64015;49.392;15.582;2024-01-27T10:35:06;97120.19;;;3.07;79.36
75438;BME280;64015;49.392;15.582;2024-01-27T10:37:35;97096.22;;;3.67;75.45
75438;BME280;64015;49.392;15.582;2024-01-27T11:24:27;97106.72;;;3.53;71.95
75438;BME280;64015;49.392;15.582;2024-01-27T12:04:40;97124.97;;;5.37;67.96
75438;BME280;64015;49.392;15.582;2024-01-27T12:07:07;97121.78;;;4.61;68.52
75438;BME280;64015;49.392;15.582;2024-01-27T12:09:36;97102.41;;;4.35;70.24
75438;BME280;64015;49.392;15.582;2024-01-27T12:15:39;97136.47;;;4.14;70.94
75438;BME280;64015;49.392;15.582;2024-01-27T12:25:20;97126.66;;;7.18;61.86
75438;BME280;64015;49.392;15.582;2024-01-27T12:27:46;97116.94;;;7.74;58.55
75438;BME280;64015;49.392;15.582;2024-01-27T12:30:27;97113.75;;;6.78;59.72
75438;BME280;64015;49.392;15.582;2024-01-27T13:05:05;97125.16;;;5.42;63.76
75438;BME280;64015;49.392;15.582;2024-01-27T13:15:50;97138.66;;;4.52;68.95
75438;BME280;64015;49.392;15.582;2024-01-27T13:18:28;97153.50;;;4.44;69.25
75438;BME280;64015;49.392;15.582;2024-01-27T13:24:58;97160.56;;;4.16;71.37
75438;BME280;64015;49.392;15.582;2024-01-27T13:27:38;97162.97;;;4.18;72.66
75438;BME280;64015;49.392;15.582;2024-01-27T13:37:50;97132.69;;;4.71;70.95
75438;BME280;64015;49.392;15.582;2024-01-27T13:40:25;97132.75;;;4.97;70.13
75438;BME280;64015;49.392;15.582;2024-01-27T13:42:51;97146.06;;;5.22;69.26
75438;BME280;64015;49.392;15.582;2024-01-27T13:57:20;97133.59;;;5.70;67.02
75438;BME280;64015;49.392;15.582;2024-01-27T14:00:15;97126.75;;;6.02;65.17
75438;BME280;64015;49.392;15.582;2024-01-27T14:07:14;97111.06;;;5.43;67.68
75438;BME280;64015;49.392;15.582;2024-01-27T14:09:55;97124.34;;;5.35;68.85
75438;BME280;64015;49.392;15.582;2024-01-27T14:13:05;97100.19;;;5.33;68.01
75438;BME280;64015;49.392;15.582;2024-01-27T14:16:19;97116.88;;;5.12;69.64
75438;BME280;64015;49.392;15.582;2024-01-27T14:19:29;97106.75;;;4.69;70.64
75438;BME280;64015;49.392;15.582;2024-01-27T14:21:55;97137.84;;;4.58;72.12
75438;BME280;64015;49.392;15.582;2024-01-27T14:24:51;97115.94;;;4.59;72.55
75438;BME280;64015;49.392;15.582;2024-01-27T14:27:20;97119.75;;;4.56;72.36
75438;BME280;64015;49.392;15.582;2024-01-27T14:30:20;97132.59;;;4.51;73.57
75438;BME280;64015;49.392;15.582;2024-01-27T14:32:46;97120.72;;;4.42;73.67
75438;BME280;64015;49.392;15.582;2024-01-27T14:35:12;97126.78;;;4.56;74.08
75438;BME280;64015;49.392;15.582;2024-01-27T14:37:39;97138.53;;;4.79;73.03
75438;BME280;64015;49.392;15.582;2024-01-27T14:40:05;97140.47;;;4.58;73.39
75438;BME280;64015;49.392;15.582;2024-01-27T14:42:38;97158.31;;;4.47;74.04
75438;BME280;64015;49.392;15.582;2024-01-27T14:45:07;97152.88;;;4.42;74.20
75438;BME280;64015;49.392;15.582;2024-01-27T14:47:34;97155.03;;;4.32;74.47
75438;BME280;64015;49.392;15.582;2024-01-27T14:50:04;97143.75;;;4.25;74.66
75438;BME280;64015;49.392;15.582;2024-01-27T14:52:31;97164.66;;;4.32;75.26
75438;BME280;64015;49.392;15.582;2024-01-27T14:55:23;97159.44;;;4.25;75.02
75438;BME280;64015;49.392;15.582;2024-01-27T15:01:24;97156.88;;;4.04;77.20
75438;BME280;64015;49.392;15.582;2024-01-27T15:03:53;97166.16;;;4.06;77.23
75438;BME280;64015;49.392;15.582;2024-01-27T15:06:19;97165.34;;;4.06;76.87
75438;BME280;64015;49.392;15.582;2024-01-27T15:08:57;97164.06;;;3.95;77.90
75438;BME280;64015;49.392;15.582;2024-01-27T15:11:52;97153.25;;;3.98;77.37
75438;BME280;64015;49.392;15.582;2024-01-27T15:14:24;97177.16;;;4.02;77.27
75438;BME280;64015;49.392;15.582;2024-01-27T15:16:54;97165.38;;;4.12;76.71
75438;BME280;64015;49.392;15.582;2024-01-27T15:19:28;97151.38;;;4.27;75.99
75438;BME280;64015;49.392;15.582;2024-01-27T15:22:19;97173.81;;;4.56;75.10
75438;BME280;64015;49.392;15.582;2024-01-27T15:25:04;97164.03;;;4.71;74.32
75438;BME280;64015;49.392;15.582;2024-01-27T15:33:57;97175.91;;;4.26;75.79
75438;BME280;64015;49.392;15.582;2024-01-27T15:36:35;97170.16;;;4.09;76.94
75438;BME280;64015;49.392;15.582;2024-01-27T15:39:11;97183.78;;;4.04;78.36
75438;BME280;64015;49.392;15.582;2024-01-27T15:41:36;97162.78;;;3.85;79.36
75438;BME280;64015;49.392;15.582;2024-01-27T15:44:02;97174.84;;;3.86;79.53
75438;BME280;64015;49.392;15.582;2024-01-27T15:46:29;97177.59;;;3.78;79.49
75438;BME280;64015;49.392;15.582;2024-01-27T15:49:10;97187.78;;;3.72;80.14
75438;BME280;64015;49.392;15.582;2024-01-27T15:51:37;97200.44;;;3.75;80.22
75438;BME280;64015;49.392;15.582;2024-01-27T15:54:20;97180.53;;;3.68;80.91
75438;BME280;64015;49.392;15.582;2024-01-27T15:56:47;97194.56;;;3.67;80.61
75438;BME280;64015;49.392;15.582;2024-01-27T15:59:13;97195.56;;;3.66;81.71
75438;BME280;64015;49.392;15.582;2024-01-27T16:01:42;97191.50;;;3.63;80.55
75438;BME280;64015;49.392;15.582;2024-01-27T16:04:23;97200.72;;;3.59;80.56
75438;BME280;64015;49.392;15.582;2024-01-27T16:06:49;97209.97;;;3.62;79.22
75438;BME280;64015;49.392;15.582;2024-01-27T16:09:24;97233.66;;;3.60;80.10
75438;BME280;64015;49.392;15.582;2024-01-27T16:11:49;97214.63;;;3.45;80.27
75438;BME280;64015;49.392;15.582;2024-01-27T16:14:16;97233.88;;;3.44;81.03
75438;BME280;64015;49.392;15.582;2024-01-27T16:16:42;97241.47;;;3.39;81.15
75438;BME280;64015;49.392;15.582;2024-01-27T16:19:14;97226.56;;;3.33;81.19
75438;BME280;64015;49.392;15.582;2024-01-27T16:21:41;97241.13;;;3.27;81.53
75438;BME280;64015;49.392;15.582;2024-01-27T16:24:07;97237.72;;;3.27;81.75
75438;BME280;64015;49.392;15.582;2024-01-27T16:26:42;97240.09;;;3.22;81.60
75438;BME280;64015;49.392;15.582;2024-01-27T16:29:16;97249.88;;;3.20;82.07
75438;BME280;64015;49.392;15.582;2024-01-27T16:31:43;97247.03;;;3.15;82.25
75438;BME280;64015;49.392;15.582;2024-01-27T16:34:08;97253.25;;;3.14;83.49
75438;BME280;64015;49.392;15.582;2024-01-27T16:36:35;97280.00;;;3.22;82.50
75438;BME280;64015;49.392;15.582;2024-01-27T16:39:08;97258.44;;;3.14;82.75
75438;BME280;64015;49.392;15.582;2024-01-27T16:41:36;97266.06;;;3.15;83.28
75438;BME280;64015;49.392;15.582;2024-01-27T16:44:02;97263.16;;;3.04;83.44
75438;BME280;64015;49.392;15.582;2024-01-27T16:46:28;97271.66;;;3.12;82.88
75438;BME280;64015;49.392;15.582;2024-01-27T16:48:54;97294.16;;;3.13;84.29
75438;BME280;64015;49.392;15.582;2024-01-27T16:51:23;97300.78;;;3.16;83.38
75438;BME280;64015;49.392;15.582;2024-01-27T16:53:48;97292.34;;;3.14;83.63
75438;BME280;64015;49.392;15.582;2024-01-27T16:56:33;97310.31;;;3.23;84.59
75438;BME280;64015;49.392;15.582;2024-01-27T17:02:09;97307.59;;;3.17;84.27
75438;BME280;64015;49.392;15.582;2024-01-27T17:04:47;97291.72;;;3.12;85.16
75438;BME280;64015;49.392;15.582;2024-01-27T17:07:21;97308.88;;;3.06;84.70
75438;BME280;64015;49.392;15.582;2024-01-27T17:09:50;97323.53;;;3.07;85.00
75438;BME280;64015;49.392;15.582;2024-01-27T17:15:26;97322.00;;;2.98;86.28
75438;BME280;64015;49.392;15.582;2024-01-27T17:17:54;97328.50;;;3.02;85.91
75438;BME280;64015;49.392;15.582;2024-01-27T17:20:20;97341.44;;;3.10;85.41
75438;BME280;64015;49.392;15.582;2024-01-27T17:22:56;97341.53;;;3.02;85.61
75438;BME280;64015;49.392;15.582;2024-01-27T17:25:22;97349.63;;;2.92;86.43
75438;BME280;64015;49.392;15.582;2024-01-27T17:27:48;97345.56;;;2.90;86.16
75438;BME280;64015;49.392;15.582;2024-01-27T17:30:16;97339.91;;;2.86;85.76
75438;BME280;64015;49.392;15.582;2024-01-27T17:32:42;97356.72;;;2.84;86.17
75438;BME280;64015;49.392;15.582;2024-01-27T17:35:09;97354.84;;;2.78;86.57
75438;BME280;64015;49.392;15.582;2024-01-27T17:37:35;97359.50;;;2.82;86.03
75438;BME280;64015;49.392;15.582;2024-01-27T17:40:03;97368.66;;;2.78;86.61
75438;BME280;64015;49.392;15.582;2024-01-27T17:43:29;97371.88;;;2.80;85.91
75438;BME280;64015;49.392;15.582;2024-01-27T17:46:08;97381.50;;;2.80;86.88
75438;BME280;64015;49.392;15.582;2024-01-27T17:48:37;97388.88;;;2.76;87.31
75438;BME280;64015;49.392;15.582;2024-01-27T17:51:03;97393.09;;;2.77;87.15
75438;BME280;64015;49.392;15.582;2024-01-27T17:53:29;97371.72;;;2.67;87.86
75438;BME280;64015;49.392;15.582;2024-01-27T17:56:05;97375.38;;;2.73;87.97
75438;BME280;64015;49.392;15.582;2024-01-27T17:58:38;97377.63;;;2.61;88.63
75438;BME280;64015;49.392;15.582;2024-01-27T18:01:11;97375.72;;;2.55;89.27
75438;BME280;64015;49.392;15.582;2024-01-27T18:03:49;97395.13;;;2.52;90.33
75438;BME280;64015;49.392;15.582;2024-01-27T18:06:42;97398.09;;;2.49;90.86
75438;BME280;64015;49.392;15.582;2024-01-27T18:09:08;97382.78;;;2.32;91.18
75438;BME280;64015;49.392;15.582;2024-01-27T18:11:49;97392.72;;;2.28;91.64
75438;BME280;64015;49.392;15.582;2024-01-27T18:14:15;97412.19;;;2.32;92.63
75438;BME280;64015;49.392;15.582;2024-01-27T18:20:10;97411.44;;;2.23;94.29
75438;BME280;64015;49.392;15.582;2024-01-27T18:22:36;97404.41;;;2.09;94.74
75438;BME280;64015;49.392;15.582;2024-01-27T18:25:02;97400.34;;;2.07;94.85
75438;BME280;64015;49.392;15.582;2024-01-27T18:27:33;97409.94;;;2.06;94.35
75438;BME280;64015;49.392;15.582;2024-01-27T18:30:02;97412.63;;;1.98;95.44
75438;BME280;64015;49.392;15.582;2024-01-27T18:32:33;97423.34;;;1.95;96.09
75438;BME280;64015;49.392;15.582;2024-01-27T18:34:59;97406.59;;;1.75;96.69
75438;BME280;64015;49.392;15.582;2024-01-27T18:37:25;97395.75;;;1.63;96.69
75438;BME280;64015;49.392;15.582;2024-01-27T18:39:57;97418.03;;;1.66;98.73
75438;BME280;64015;49.392;15.582;2024-01-27T18:42:35;97411.78;;;1.44;99.51
75438;BME280;64015;49.392;15.582;2024-01-27T18:48:27;97432.09;;;1.40;100.00
75438;BME280;64015;49.392;15.582;2024-01-27T18:51:09;97418.84;;;1.27;100.00
75438;BME280;64015;49.392;15.582;2024-01-27T18:53:39;97418.22;;;1.17;100.00
75438;BME280;64015;49.392;15.582;2024-01-27T19:03:30;97456.28;;;1.02;100.00
75438;BME280;64015;49.392;15.582;2024-01-27T19:06:12;97437.78;;;0.81;100.00
75438;BME280;64015;49.392;15.582;2024-01-27T19:08:41;97451.25;;;0.76;100.00
75438;BME280;64015;49.392;15.582;2024-01-27T19:11:24;97439.91;;;0.69;100.00
75438;BME280;64015;49.392;15.582;2024-01-27T19:14:17;97472.69;;;0.86;100.00
75438;BME280;64015;49.392;15.582;2024-01-27T19:16:43;97462.81;;;0.73;100.00
75438;BME280;64015;49.392;15.582;2024-01-27T19:19:09;97455.97;;;0.72;100.00
75438;BME280;64015;49.392;15.582;2024-01-27T19:21:35;97451.09;;;0.69;100.00
75438;BME280;64015;49.392;15.582;2024-01-27T19:31:29;97465.38;;;0.65;100.00
75438;BME280;64015;49.392;15.582;2024-01-27T19:34:14;97449.97;;;0.56;100.00
75438;BME280;64015;49.392;15.582;2024-01-27T19:36:43;97440.25;;;0.50;100.00
75438;BME280;64015;49.392;15.582;2024-01-27T19:39:12;97447.88;;;0.59;100.00
75438;BME280;64015;49.392;15.582;2024-01-27T19:44:58;97452.91;;;0.61;100.00
75438;BME280;64015;49.392;15.582;2024-01-27T19:47:26;97447.22;;;0.49;100.00
75438;BME280;64015;49.392;15.582;2024-01-27T19:50:04;97453.38;;;0.48;100.00
75438;BME280;64015;49.392;15.582;2024-01-27T19:52:33;97460.34;;;0.40;100.00
75438;BME280;64015;49.392;15.582;2024-01-27T19:54:59;97467.66;;;0.36;100.00
75438;BME280;64015;49.392;15.582;2024-01-27T19:57:37;97454.84;;;0.26;100.00